createdAt,value
2019-02-04T00:01:22.287Z,9.67
2019-02-04T00:03:56.296Z,9.17
2019-02-04T00:06:29.487Z,7.37
2019-02-04T00:09:04.336Z,7.07
2019-02-04T00:11:38.215Z,7.50
2019-02-04T00:14:12.142Z,7.93
2019-02-04T00:16:45.512Z,10.13
2019-02-04T00:19:19.010Z,9.33
2019-02-04T00:21:52.331Z,10.07
2019-02-04T00:24:25.698Z,8.03
2019-02-04T00:26:59.223Z,9.07
2019-02-04T00:29:32.381Z,7.17
2019-02-04T00:32:05.632Z,9.20
2019-02-04T00:34:38.570Z,7.27
2019-02-04T00:37:11.852Z,8.20
2019-02-04T00:39:44.887Z,7.17
2019-02-04T00:42:17.999Z,6.93
2019-02-04T00:44:51.298Z,6.93
2019-02-04T00:47:24.849Z,7.77
2019-02-04T00:49:57.835Z,8.90
2019-02-04T00:52:30.759Z,7.73
2019-02-04T00:55:03.526Z,7.63
2019-02-04T00:57:36.552Z,7.40
2019-02-04T01:00:15.348Z,7.10
2019-02-04T01:02:48.385Z,6.70
2019-02-04T01:05:22.572Z,8.27
2019-02-04T01:07:55.829Z,7.37
2019-02-04T01:10:29.607Z,6.93
2019-02-04T01:13:02.586Z,4.53
2019-02-04T01:15:35.415Z,4.37
2019-02-04T01:18:08.548Z,4.33
2019-02-04T01:20:41.780Z,4.43
2019-02-04T01:23:15.081Z,4.50
2019-02-04T01:25:47.979Z,3.87
2019-02-04T01:28:21.098Z,3.77
2019-02-04T01:30:54.180Z,4.17
2019-02-04T01:33:27.390Z,4.17
2019-02-04T01:36:00.487Z,3.73
2019-02-04T01:38:33.688Z,4.47
2019-02-04T01:41:06.957Z,7.67
2019-02-04T01:43:41.230Z,6.60
2019-02-04T01:46:14.570Z,7.13
2019-02-04T01:48:47.848Z,6.23
2019-02-04T01:51:20.773Z,6.00
2019-02-04T01:53:53.763Z,6.53
2019-02-04T01:56:26.574Z,6.20
2019-02-04T01:58:59.446Z,7.67
2019-02-04T02:01:32.274Z,20.60
2019-02-04T02:04:05.693Z,8.07
2019-02-04T02:06:38.565Z,9.53
2019-02-04T02:09:31.091Z,8.70
2019-02-04T02:12:03.994Z,10.73
2019-02-04T02:14:36.942Z,8.60
2019-02-04T02:17:10.065Z,8.27
2019-02-04T02:19:42.957Z,8.43
2019-02-04T02:22:16.007Z,7.33
2019-02-04T02:24:48.743Z,7.60
2019-02-04T02:27:21.618Z,8.63
2019-02-04T02:29:54.948Z,15.17
2019-02-04T02:32:27.665Z,9.90
2019-02-04T02:35:00.732Z,12.47
2019-02-04T02:37:33.723Z,10.60
2019-02-04T02:40:10.559Z,10.57
2019-02-04T02:42:43.461Z,9.80
2019-02-04T02:45:16.676Z,10.23
2019-02-04T02:47:49.816Z,10.23
2019-02-04T02:50:23.857Z,9.60
2019-02-04T02:52:57.346Z,9.03
2019-02-04T02:55:30.643Z,9.40
2019-02-04T02:58:03.811Z,10.53
2019-02-04T03:00:36.770Z,10.07
2019-02-04T03:03:09.562Z,10.13
2019-02-04T03:05:42.710Z,11.10
2019-02-04T03:08:16.201Z,10.77
2019-02-04T03:10:49.305Z,9.93
2019-02-04T03:13:22.444Z,10.53
2019-02-04T03:15:55.307Z,10.23
2019-02-04T03:18:28.267Z,11.07
2019-02-04T03:21:01.384Z,11.10
2019-02-04T03:23:34.466Z,9.87
2019-02-04T03:26:07.590Z,10.57
2019-02-04T03:28:41.060Z,11.17
2019-02-04T03:31:14.268Z,10.97
2019-02-04T03:33:48.813Z,10.37
2019-02-04T03:36:21.823Z,20.83
2019-02-04T03:38:56.272Z,13.23
2019-02-04T03:41:29.347Z,12.50
2019-02-04T03:44:02.473Z,12.80
2019-02-04T03:46:35.563Z,13.03
2019-02-04T03:49:08.484Z,16.20
2019-02-04T03:51:41.729Z,11.87
2019-02-04T03:54:14.602Z,13.00
2019-02-04T03:56:47.593Z,13.73
2019-02-04T03:59:20.538Z,12.37
2019-02-04T04:01:54.012Z,13.03
2019-02-04T04:04:28.501Z,12.80
2019-02-04T04:07:01.705Z,12.90
2019-02-04T04:09:34.589Z,13.87
2019-02-04T04:12:07.645Z,11.50
2019-02-04T04:14:41.096Z,10.67
2019-02-04T04:17:14.236Z,10.27
2019-02-04T04:19:47.387Z,12.57
2019-02-04T04:22:20.435Z,13.13
2019-02-04T04:24:53.480Z,12.50
2019-02-04T04:27:26.642Z,12.57
2019-02-04T04:29:59.551Z,12.10
2019-02-04T04:32:32.636Z,12.93
2019-02-04T04:35:06.578Z,13.70
2019-02-04T04:37:39.731Z,13.20
2019-02-04T04:40:13.011Z,11.63
2019-02-04T04:42:46.555Z,11.47
2019-02-04T04:45:22.063Z,12.37
2019-02-04T04:47:55.548Z,13.03
2019-02-04T04:50:28.857Z,11.43
2019-02-04T04:53:01.967Z,11.80
2019-02-04T04:55:34.883Z,12.67
2019-02-04T04:58:08.016Z,13.53
2019-02-04T05:00:41.552Z,15.07
2019-02-04T05:03:15.276Z,13.60
2019-02-04T05:05:48.499Z,15.30
2019-02-04T05:08:21.607Z,13.60
2019-02-04T05:10:55.278Z,13.27
2019-02-04T05:13:28.255Z,14.33
2019-02-04T05:16:01.785Z,14.43
2019-02-04T05:18:38.313Z,18.03
2019-02-04T05:21:09.878Z,14.53
2019-02-04T05:23:43.190Z,12.47
2019-02-04T05:26:15.967Z,12.80
2019-02-04T05:28:53.160Z,13.07
2019-02-04T05:31:26.299Z,13.97
2019-02-04T05:33:59.414Z,13.17
2019-02-04T05:36:32.542Z,20.17
2019-02-04T05:39:07.886Z,20.43
2019-02-04T05:41:43.001Z,16.03
2019-02-04T05:44:15.988Z,16.87
2019-02-04T05:46:52.160Z,21.53
2019-02-04T05:49:44.383Z,22.57
2019-02-04T05:52:17.612Z,28.83
2019-02-04T05:54:51.065Z,20.60
2019-02-04T05:57:24.057Z,20.07
2019-02-04T05:59:57.048Z,20.73
2019-02-04T06:02:30.390Z,22.57
2019-02-04T06:05:03.526Z,20.37
2019-02-04T06:07:36.670Z,21.47
2019-02-04T06:10:10.457Z,20.67
2019-02-04T06:12:43.594Z,22.47
2019-02-04T06:15:16.717Z,24.80
2019-02-04T06:17:50.003Z,24.43
2019-02-04T06:20:24.154Z,29.90
2019-02-04T06:22:58.479Z,29.33
2019-02-04T06:25:31.481Z,28.63
2019-02-04T06:28:06.344Z,23.37
2019-02-04T06:30:38.980Z,25.40
2019-02-04T06:33:12.124Z,32.30
2019-02-04T06:35:45.408Z,28.57
2019-02-04T06:38:18.782Z,26.87
2019-02-04T06:40:52.023Z,27.07
2019-02-04T06:43:25.050Z,30.70
2019-02-04T06:45:58.210Z,31.07
2019-02-04T06:48:31.092Z,28.37
2019-02-04T06:51:04.111Z,26.73
2019-02-04T06:53:37.081Z,34.47
2019-02-04T06:56:10.351Z,30.90
2019-02-04T06:58:44.638Z,32.40
2019-02-04T07:01:17.462Z,34.57
2019-02-04T07:03:50.767Z,33.87
2019-02-04T07:06:25.023Z,33.27
2019-02-04T07:08:57.802Z,31.03
2019-02-04T07:11:31.049Z,28.77
2019-02-04T07:14:04.150Z,25.03
2019-02-04T07:16:38.638Z,28.50
2019-02-04T07:19:23.407Z,24.47
2019-02-04T07:21:46.728Z,24.67
2019-02-04T07:24:20.193Z,22.03
2019-02-04T07:26:53.090Z,22.13
2019-02-04T07:29:26.330Z,20.30
2019-02-04T07:31:59.464Z,20.03
2019-02-04T07:34:32.525Z,19.13
2019-02-04T07:37:05.757Z,23.60
2019-02-04T07:39:39.589Z,23.07
2019-02-04T07:42:12.646Z,24.40
2019-02-04T07:44:47.194Z,34.40
2019-02-04T07:47:20.339Z,32.53
2019-02-04T07:49:53.501Z,30.20
2019-02-04T07:52:26.863Z,26.00
2019-02-04T07:55:00.331Z,25.83
2019-02-04T07:57:33.479Z,26.37
2019-02-04T08:00:10.300Z,25.83
2019-02-04T08:02:43.653Z,24.57
2019-02-04T08:05:16.769Z,25.10
2019-02-04T08:07:50.023Z,31.30
2019-02-04T08:10:23.394Z,30.80
2019-02-04T08:13:01.399Z,27.50
2019-02-04T08:15:35.048Z,23.40
2019-02-04T08:18:09.127Z,19.13
2019-02-04T08:20:42.151Z,18.80
2019-02-04T08:23:15.339Z,18.23
2019-02-04T08:25:48.438Z,18.63
2019-02-04T08:28:21.381Z,17.03
2019-02-04T08:30:54.436Z,14.83
2019-02-04T08:33:27.511Z,26.43
2019-02-04T08:36:00.914Z,22.60
2019-02-04T08:38:33.862Z,21.00
2019-02-04T08:41:08.006Z,20.70
2019-02-04T08:43:41.042Z,19.77
2019-02-04T08:46:14.371Z,20.53
2019-02-04T08:48:47.635Z,23.50
2019-02-04T08:51:20.683Z,19.00
2019-02-04T08:53:53.912Z,17.93
2019-02-04T08:56:26.982Z,18.30
2019-02-04T08:59:00.161Z,18.93
2019-02-04T09:01:33.531Z,19.50
2019-02-04T09:04:06.900Z,17.57
2019-02-04T09:06:40.093Z,15.40
2019-02-04T09:09:13.700Z,15.23
2019-02-04T09:11:47.387Z,19.20
2019-02-04T09:14:20.778Z,22.17
2019-02-04T09:16:54.131Z,20.13
2019-02-04T09:19:27.122Z,15.87
2019-02-04T09:22:00.429Z,22.73
2019-02-04T09:24:33.659Z,17.70
2019-02-04T09:27:06.852Z,8.53
2019-02-04T09:29:40.097Z,8.97
2019-02-04T09:32:13.077Z,10.10
2019-02-04T09:34:46.700Z,10.63
2019-02-04T09:37:20.994Z,9.93
2019-02-04T09:39:54.326Z,10.93
2019-02-04T09:42:27.368Z,9.73
2019-02-04T09:45:00.491Z,8.57
2019-02-04T09:47:35.040Z,6.40
2019-02-04T09:50:21.182Z,6.90
2019-02-04T09:52:45.188Z,7.37
2019-02-04T09:55:25.531Z,7.40
2019-02-04T09:57:58.696Z,9.50
2019-02-04T10:00:34.234Z,7.80
2019-02-04T10:03:08.124Z,5.03
2019-02-04T10:05:41.631Z,10.13
2019-02-04T10:08:14.667Z,8.60
2019-02-04T10:10:47.964Z,7.63
2019-02-04T10:13:21.074Z,5.67
2019-02-04T10:15:54.063Z,7.33
2019-02-04T10:18:27.612Z,6.87
2019-02-04T10:21:00.634Z,6.70
2019-02-04T10:23:33.589Z,7.93
2019-02-04T10:26:06.747Z,5.47
2019-02-04T10:28:39.676Z,10.00
2019-02-04T10:31:13.030Z,6.70
2019-02-04T10:33:46.039Z,4.97
2019-02-04T10:36:19.155Z,4.70
2019-02-04T10:38:52.435Z,4.33
2019-02-04T10:41:25.389Z,8.80
2019-02-04T10:43:58.351Z,5.60
2019-02-04T10:46:31.494Z,4.80
2019-02-04T10:49:04.688Z,5.03
2019-02-04T10:51:38.381Z,4.73
2019-02-04T10:54:11.741Z,4.30
2019-02-04T10:56:44.987Z,5.07
2019-02-04T10:59:18.021Z,4.27
2019-02-04T11:01:51.704Z,4.60
2019-02-04T11:04:24.608Z,5.73
2019-02-04T11:06:58.110Z,6.20
2019-02-04T11:09:31.274Z,4.83
2019-02-04T11:12:06.406Z,4.93
2019-02-04T11:14:39.997Z,4.77
2019-02-04T11:17:13.188Z,5.03
2019-02-04T11:19:46.508Z,4.93
2019-02-04T11:22:19.615Z,4.80
2019-02-04T11:24:53.079Z,5.60
2019-02-04T11:27:27.388Z,6.00
2019-02-04T11:30:00.832Z,5.40
2019-02-04T11:32:33.712Z,6.07
2019-02-04T11:35:07.421Z,5.63
2019-02-04T11:37:40.497Z,5.20
2019-02-04T11:40:15.625Z,5.80
2019-02-04T11:42:49.490Z,6.17
2019-02-04T11:45:22.876Z,6.43
2019-02-04T11:47:56.032Z,9.47
2019-02-04T11:50:29.809Z,6.43
2019-02-04T11:53:03.412Z,6.67
2019-02-04T11:55:36.606Z,6.43
2019-02-04T11:58:10.964Z,6.17
2019-02-04T12:00:44.152Z,12.37
2019-02-04T12:03:18.576Z,17.37
2019-02-04T12:05:51.872Z,18.53
2019-02-04T12:08:25.061Z,14.57
2019-02-04T12:11:04.690Z,12.83
2019-02-04T12:13:38.081Z,11.77
2019-02-04T12:27:33.840Z,11.60
2019-02-04T12:30:10.031Z,18.40
2019-02-04T12:32:43.190Z,8.23
2019-02-04T12:35:16.728Z,6.10
2019-02-04T12:37:50.331Z,6.03
2019-02-04T12:40:23.777Z,6.07
2019-02-04T12:42:57.306Z,6.57
2019-02-04T12:45:33.942Z,6.70
2019-02-04T12:48:08.107Z,7.50
2019-02-04T12:50:41.021Z,6.10
2019-02-04T12:53:14.544Z,5.23
2019-02-04T12:55:48.066Z,5.17
2019-02-04T12:58:22.465Z,5.10
2019-02-04T13:00:55.507Z,4.00
2019-02-04T13:03:28.748Z,4.80
2019-02-04T13:06:03.253Z,3.87
2019-02-04T13:08:36.383Z,5.23
2019-02-04T13:11:09.523Z,4.43
2019-02-04T13:13:42.402Z,5.03
2019-02-04T13:16:15.739Z,4.70
2019-02-04T13:18:48.862Z,4.27
2019-02-04T13:21:21.988Z,4.60
2019-02-04T13:23:55.160Z,4.70
2019-02-04T13:26:28.933Z,4.60
2019-02-04T13:29:02.130Z,3.93
2019-02-04T13:31:35.205Z,4.63
2019-02-04T13:34:08.749Z,5.00
2019-02-04T13:36:42.419Z,5.13
2019-02-04T13:39:15.936Z,5.30
2019-02-04T13:41:48.883Z,5.80
2019-02-04T13:44:22.720Z,5.30
2019-02-04T13:46:56.339Z,7.70
2019-02-04T13:49:29.223Z,8.13
2019-02-04T13:52:02.577Z,8.33
2019-02-04T13:54:35.757Z,8.13
2019-02-04T13:57:09.349Z,8.63
2019-02-04T13:59:42.650Z,6.50
2019-02-04T14:02:15.985Z,7.50
2019-02-04T14:04:49.006Z,10.17
2019-02-04T14:07:21.917Z,11.30
2019-02-04T14:09:59.010Z,11.67
2019-02-04T14:12:30.809Z,12.43
2019-02-04T14:15:03.760Z,8.33
2019-02-04T14:17:36.659Z,7.23
2019-02-04T14:20:13.451Z,7.93
2019-02-04T14:22:47.063Z,7.17
2019-02-04T14:25:20.469Z,7.43
2019-02-04T14:27:53.844Z,7.77
2019-02-04T14:30:31.314Z,7.60
2019-02-04T14:33:05.074Z,8.47
2019-02-04T14:35:38.660Z,7.63
2019-02-04T14:38:12.094Z,8.67
2019-02-04T14:40:45.229Z,7.73
2019-02-04T14:43:30.215Z,7.90
2019-02-04T14:47:01.398Z,7.87
2019-02-04T14:50:16.300Z,7.23
2019-02-04T14:53:46.420Z,7.90
2019-02-04T14:57:20.909Z,8.47
2019-02-04T15:00:40.933Z,8.73
2019-02-04T15:03:48.757Z,7.80
2019-02-04T15:07:35.609Z,9.00
2019-02-04T15:11:05.306Z,8.47
2019-02-04T15:14:47.533Z,8.93
2019-02-04T15:18:20.095Z,8.83
2019-02-04T15:21:34.072Z,9.37
2019-02-04T15:24:32.048Z,10.30
2019-02-04T15:28:00.304Z,10.07
2019-02-04T15:30:52.157Z,9.20
2019-02-04T15:33:45.252Z,10.43
2019-02-04T15:36:58.531Z,10.17
2019-02-04T15:40:18.574Z,10.30
2019-02-04T15:44:07.456Z,10.33
2019-02-04T15:46:52.829Z,10.07
2019-02-04T15:50:42.593Z,11.53
2019-02-04T15:53:18.648Z,10.67
2019-02-04T15:55:51.722Z,11.23
2019-02-04T15:58:25.311Z,10.40
2019-02-04T16:00:59.732Z,9.97
2019-02-04T16:03:33.068Z,10.87
2019-02-04T16:06:06.361Z,9.10
2019-02-04T16:08:40.622Z,10.43
2019-02-04T16:11:14.216Z,11.43
2019-02-04T16:13:47.135Z,10.27
2019-02-04T16:16:20.321Z,9.90
2019-02-04T16:18:53.392Z,9.53
2019-02-04T16:21:26.587Z,14.50
2019-02-04T16:23:59.899Z,12.40
2019-02-04T16:26:33.290Z,11.20
2019-02-04T16:29:06.626Z,12.03
2019-02-04T16:31:39.478Z,13.50
2019-02-04T16:34:12.731Z,13.63
2019-02-04T16:36:51.365Z,13.97
2019-02-04T16:39:25.865Z,12.73
2019-02-04T16:41:59.358Z,16.27
2019-02-04T16:44:32.552Z,11.93
2019-02-04T16:47:06.153Z,12.77
2019-02-04T16:49:39.195Z,13.37
2019-02-04T16:52:14.804Z,15.83
2019-02-04T16:54:47.952Z,14.50
2019-02-04T16:57:25.890Z,12.10
2019-02-04T17:00:09.428Z,12.40
2019-02-04T17:02:53.000Z,11.87
2019-02-04T17:05:33.262Z,11.97
2019-02-04T17:08:12.778Z,11.00
2019-02-04T17:10:52.458Z,13.10
2019-02-04T17:13:33.555Z,14.13
2019-02-04T17:16:13.504Z,15.00
2019-02-04T17:18:52.425Z,13.73
2019-02-04T17:21:31.125Z,15.50
2019-02-04T17:24:10.083Z,15.60
2019-02-04T17:26:49.905Z,15.87
2019-02-04T17:29:29.547Z,14.77
2019-02-04T17:32:08.551Z,15.53
2019-02-04T17:34:47.344Z,15.23
2019-02-04T17:37:24.969Z,14.43
2019-02-04T17:40:04.267Z,16.20
2019-02-04T17:42:45.676Z,16.40
2019-02-04T17:45:26.023Z,14.60
2019-02-04T17:48:07.983Z,14.63
2019-02-04T17:50:46.910Z,13.17
2019-02-04T17:53:33.876Z,13.17
2019-02-04T17:56:04.931Z,13.00
2019-02-04T17:58:43.983Z,13.47
2019-02-04T18:01:21.335Z,14.80
2019-02-04T18:03:59.646Z,13.37
2019-02-04T18:06:36.579Z,13.07
2019-02-04T18:09:13.481Z,12.73
2019-02-04T18:11:52.977Z,13.30
2019-02-04T18:14:31.792Z,12.83
2019-02-04T18:17:10.443Z,12.37
2019-02-04T18:19:53.458Z,12.07
2019-02-04T18:22:31.186Z,12.87
2019-02-04T18:25:08.705Z,11.80
2019-02-04T18:27:49.031Z,11.97
2019-02-04T18:30:27.642Z,13.20
2019-02-04T18:33:06.117Z,12.47
2019-02-04T18:35:50.344Z,12.33
2019-02-04T18:38:29.046Z,12.53
2019-02-04T18:41:08.868Z,13.87
2019-02-04T18:43:48.617Z,12.87
2019-02-04T18:46:50.145Z,13.47
2019-02-04T18:49:29.842Z,13.67
2019-02-04T18:52:09.570Z,13.20
2019-02-04T18:54:50.414Z,11.90
2019-02-04T18:57:31.829Z,13.53
2019-02-04T19:00:09.257Z,13.43
2019-02-04T19:02:50.981Z,13.77
2019-02-04T19:05:29.814Z,12.33
2019-02-04T19:08:08.552Z,12.60
2019-02-04T19:10:48.649Z,12.33
2019-02-04T19:13:35.778Z,11.40
2019-02-04T19:16:12.130Z,11.83
2019-02-04T19:18:53.205Z,13.60
2019-02-04T19:21:38.334Z,12.80
2019-02-04T19:24:18.243Z,14.00
2019-02-04T19:27:05.349Z,12.70
2019-02-04T19:29:44.175Z,13.20
2019-02-04T19:32:26.708Z,13.03
2019-02-04T19:35:06.106Z,13.60
2019-02-04T19:37:49.160Z,14.63
2019-02-04T19:40:32.694Z,12.67
2019-02-04T19:43:09.529Z,12.90
2019-02-04T19:45:48.917Z,11.77
2019-02-04T19:48:25.934Z,14.07
2019-02-04T19:51:03.441Z,12.67
2019-02-04T19:53:43.615Z,14.00
2019-02-04T19:56:21.519Z,13.60
2019-02-04T19:59:01.788Z,12.03
2019-02-04T20:01:44.964Z,13.13
2019-02-04T20:04:23.984Z,12.90
2019-02-04T20:07:02.987Z,12.77
2019-02-04T20:09:42.992Z,12.83
2019-02-04T20:12:20.047Z,12.43
2019-02-04T20:15:00.478Z,14.33
2019-02-04T20:17:38.018Z,12.40
2019-02-04T20:20:16.316Z,12.63
2019-02-04T20:23:04.811Z,13.20
2019-02-04T20:25:47.107Z,12.00
2019-02-04T20:28:25.340Z,13.10
2019-02-04T20:31:00.584Z,11.83
2019-02-04T20:33:37.222Z,12.37
2019-02-04T20:36:17.255Z,12.63
2019-02-04T20:38:57.632Z,11.57
2019-02-04T20:41:38.801Z,11.87
2019-02-04T20:44:15.324Z,12.00
2019-02-04T20:46:56.479Z,12.10
2019-02-04T20:49:33.802Z,12.63
2019-02-04T20:52:16.221Z,11.13
2019-02-04T20:54:56.514Z,11.97
2019-02-04T20:57:39.725Z,11.43
2019-02-04T21:00:20.394Z,10.87
2019-02-04T21:03:03.968Z,11.60
2019-02-04T21:05:40.799Z,11.13
2019-02-04T21:08:20.373Z,11.83
2019-02-04T21:11:01.021Z,10.73
2019-02-04T21:13:48.660Z,11.63
2019-02-04T21:16:29.184Z,11.27
2019-02-04T21:19:14.009Z,11.47
2019-02-04T21:21:53.515Z,11.53
2019-02-04T21:24:34.056Z,11.97
2019-02-04T21:27:12.428Z,11.53
2019-02-04T21:30:08.410Z,11.83
2019-02-04T21:32:47.144Z,11.23
2019-02-04T21:35:23.654Z,11.00
2019-02-04T21:38:01.367Z,11.37
2019-02-04T21:40:41.970Z,10.90
2019-02-04T21:43:20.696Z,11.30
2019-02-04T21:45:58.039Z,11.33
2019-02-04T21:48:39.340Z,11.70
2019-02-04T21:51:15.888Z,11.83
2019-02-04T21:53:48.744Z,11.30
2019-02-04T21:56:21.706Z,11.57
2019-02-04T21:58:55.362Z,13.13
2019-02-04T22:01:28.475Z,12.23
2019-02-04T22:04:01.922Z,12.70
2019-02-04T22:06:35.511Z,11.63
2019-02-04T22:09:11.355Z,11.30
2019-02-04T22:11:44.274Z,11.57
2019-02-04T22:14:17.528Z,10.60
2019-02-04T22:16:50.458Z,11.07
2019-02-04T22:19:23.489Z,10.30
2019-02-04T22:21:56.603Z,11.70
2019-02-04T22:24:29.929Z,12.23
2019-02-04T22:27:02.864Z,12.47
2019-02-04T22:29:35.838Z,11.83
2019-02-04T22:32:09.100Z,12.33
2019-02-04T22:34:45.547Z,12.13
2019-02-04T22:37:17.355Z,11.63
2019-02-04T22:39:50.252Z,11.20
2019-02-04T22:42:23.391Z,11.57
2019-02-04T22:44:58.134Z,12.13
2019-02-04T22:47:31.189Z,11.60
2019-02-04T22:50:05.063Z,11.40
2019-02-04T22:52:38.379Z,10.90
2019-02-04T22:55:11.902Z,11.53
2019-02-04T22:57:44.863Z,10.90
2019-02-04T23:00:59.093Z,11.27
2019-02-04T23:03:32.231Z,11.53
2019-02-04T23:06:05.992Z,11.50
2019-02-04T23:08:38.887Z,12.03
2019-02-04T23:11:12.146Z,11.97
2019-02-04T23:13:45.040Z,11.97
2019-02-04T23:16:18.001Z,12.07
2019-02-04T23:18:50.952Z,12.23
2019-02-04T23:21:24.066Z,12.03
2019-02-04T23:23:58.676Z,12.30
2019-02-04T23:26:31.681Z,12.03
2019-02-04T23:29:05.524Z,11.70
2019-02-04T23:31:38.680Z,12.60
2019-02-04T23:34:11.776Z,12.40
2019-02-04T23:36:44.959Z,11.60
2019-02-04T23:39:17.833Z,11.53
2019-02-04T23:41:50.844Z,13.77
2019-02-04T23:44:23.803Z,13.07
2019-02-04T23:46:57.064Z,11.17
2019-02-04T23:49:30.979Z,11.97
2019-02-04T23:52:05.161Z,11.23
2019-02-04T23:54:38.322Z,11.07
2019-02-04T23:57:11.667Z,10.63
2019-02-04T23:59:45.019Z,11.23
